Time;durP1;ratioP1;P1;durP2;ratioP2;P2;SDS_P1;SDS_P2;PMS_P1;PMS_P2;Temp;Humidity;BMP_temperature;BMP_pressure;BME280_temperature;BME280_humidity;BME280_pressure;Samples;Min_cycle;Max_cycle;Signal;HPM_P1;HPM_P2
2023/07/05 00:00:48;;;;;;;2.60;2.13;;;19.90;1.00;;;;;;5000891;28;20181;-82
2023/07/05 00:06:35;;;;;;;2.27;1.77;;;20.00;1.00;;;;;;5006399;28;20413;-82
2023/07/05 00:09:01;;;;;;;2.17;1.90;;;20.00;1.00;;;;;;5014289;28;20401;-82
2023/07/05 00:25:48;;;;;;;6.53;2.27;;;20.10;1.00;;;;;;4975334;28;20585;-83
2023/07/05 00:31:35;;;;;;;12.70;2.30;;;19.90;1.00;;;;;;5006911;28;20435;-83
2023/07/05 00:38:12;;;;;;;8.83;3.10;;;19.60;1.00;;;;;;5010837;28;20216;-82
2023/07/05 00:43:59;;;;;;;15.70;3.67;;;19.50;1.00;;;;;;4974795;28;20436;-82
2023/07/05 00:46:47;;;;;;;8.93;3.10;;;19.50;1.00;;;;;;4990322;28;20427;-82
2023/07/05 00:53:00;;;;;;;9.93;3.83;;;19.30;1.00;;;;;;5000278;28;20410;-82
2023/07/05 00:58:50;;;;;;;8.60;3.33;;;19.10;1.00;;;;;;4974981;28;20397;-82
2023/07/05 01:04:44;;;;;;;5.93;3.50;;;19.00;1.00;;;;;;4981987;28;21183;-82
2023/07/05 01:10:32;;;;;;;9.40;4.00;;;18.90;1.00;;;;;;4978693;28;20436;-82
2023/07/05 01:13:51;;;;;;;8.73;3.60;;;18.90;1.00;;;;;;5007348;28;20398;-82
2023/07/05 01:20:00;;;;;;;8.23;3.50;;;18.90;1.00;;;;;;4995339;28;20415;-82
2023/07/05 01:22:47;;;;;;;6.67;3.50;;;18.90;1.00;;;;;;4999563;28;20515;-82
2023/07/05 01:32:16;;;;;;;10.67;3.93;;;18.60;1.00;;;;;;5008841;28;20506;-74
2023/07/05 01:34:51;;;;;;;8.40;4.00;;;18.60;1.00;;;;;;4995909;28;20914;-74
2023/07/05 01:37:36;;;;;;;7.80;3.60;;;18.60;1.00;;;;;;5000792;28;20934;-74
2023/07/05 01:40:20;;;;;;;6.93;3.97;;;18.60;1.00;;;;;;5006167;28;20459;-74
2023/07/05 01:42:52;;;;;;;4.47;2.90;;;18.60;1.00;;;;;;4997200;28;20430;-74
2023/07/05 01:45:33;;;;;;;6.73;3.10;;;18.50;1.00;;;;;;5001009;28;20609;-74
2023/07/05 01:48:21;;;;;;;4.00;3.20;;;18.50;1.00;;;;;;5001427;28;20434;-74
2023/07/05 01:50:57;;;;;;;8.13;3.40;;;18.60;1.00;;;;;;4998176;28;20467;-73
2023/07/05 01:54:06;;;;;;;2.70;2.50;;;18.60;1.00;;;;;;4984985;28;21006;-82
2023/07/05 02:00:15;;;;;;;5.13;3.33;;;18.50;1.00;;;;;;4986644;28;20478;-82
2023/07/05 02:12:46;;;;;;;5.97;3.37;;;18.50;1.00;;;;;;5014533;28;20481;-82
2023/07/05 02:15:12;;;;;;;7.17;3.77;;;18.30;1.00;;;;;;4993364;28;20439;-82
2023/07/05 02:17:48;;;;;;;8.50;3.50;;;18.40;1.00;;;;;;5003140;28;20180;-74
2023/07/05 02:20:14;;;;;;;3.53;2.93;;;18.40;1.00;;;;;;4984070;28;20443;-74
2023/07/05 02:22:42;;;;;;;6.80;3.40;;;18.40;1.00;;;;;;5007983;28;20449;-73
2023/07/05 02:25:08;;;;;;;3.90;3.27;;;18.40;1.00;;;;;;5002164;28;21005;-74
2023/07/05 02:27:35;;;;;;;7.57;3.40;;;18.40;1.00;;;;;;4992745;28;20537;-74
2023/07/05 02:30:00;;;;;;;6.37;3.07;;;18.30;1.00;;;;;;4993308;28;20534;-74
2023/07/05 02:32:26;;;;;;;4.60;2.80;;;18.30;1.00;;;;;;5006407;28;20512;-74
2023/07/05 02:34:58;;;;;;;4.47;2.80;;;18.30;1.00;;;;;;5001259;28;20234;-74
2023/07/05 02:37:24;;;;;;;6.30;2.73;;;18.30;1.00;;;;;;4997372;28;20440;-74
2023/07/05 02:40:42;;;;;;;3.17;2.80;;;18.30;1.00;;;;;;4996052;28;20921;-81
2023/07/05 02:43:18;;;;;;;5.23;2.73;;;18.30;1.00;;;;;;5001339;28;20272;-82
2023/07/05 02:46:26;;;;;;;3.47;2.33;;;18.40;1.00;;;;;;5006812;28;20945;-81
2023/07/05 02:56:18;;;;;;;3.87;2.70;;;18.30;1.00;;;;;;4988592;28;20517;-81
2023/07/05 03:06:14;;;;;;;2.70;2.50;;;18.10;1.00;;;;;;4999434;28;20465;-81
2023/07/05 03:12:24;;;;;;;2.50;2.30;;;17.90;1.00;;;;;;4999515;28;20595;-81
2023/07/05 03:18:11;;;;;;;4.57;2.40;;;18.00;1.00;;;;;;4987748;28;20409;-81
2023/07/05 03:23:59;;;;;;;3.30;2.53;;;17.90;1.00;;;;;;5005697;28;20190;-82
2023/07/05 03:26:25;;;;;;;2.60;2.40;;;18.00;1.00;;;;;;5007038;28;20413;-82
2023/07/05 03:33:06;;;;;;;4.63;2.30;;;18.00;1.00;;;;;;4997296;28;20473;-81
2023/07/05 03:36:13;;;;;;;4.50;2.60;;;18.00;1.00;;;;;;4998820;28;20583;-82
2023/07/05 03:39:24;;;;;;;2.60;2.37;;;18.00;1.00;;;;;;4999776;28;21019;-81
2023/07/05 03:41:54;;;;;;;4.33;2.47;;;18.00;1.00;;;;;;5003166;28;20536;-81
2023/07/05 03:47:41;;;;;;;3.30;2.30;;;18.00;1.00;;;;;;5005358;28;20974;-81
2023/07/05 03:51:00;;;;;;;3.77;2.27;;;18.00;1.00;;;;;;4993045;28;20439;-81
2023/07/05 03:56:47;;;;;;;3.70;2.57;;;18.10;1.00;;;;;;4988917;28;20486;-80
2023/07/05 03:59:30;;;;;;;3.40;2.30;;;18.10;1.00;;;;;;4983053;28;20531;-81
2023/07/05 04:05:18;;;;;;;3.03;2.70;;;18.10;1.00;;;;;;5004534;28;21108;-82
2023/07/05 04:12:00;;;;;;;4.60;2.27;;;18.10;1.00;;;;;;5005635;28;20435;-82
2023/07/05 04:14:54;;;;;;;2.07;1.87;;;18.20;1.00;;;;;;4983390;28;20514;-83
2023/07/05 04:17:31;;;;;;;4.93;2.13;;;18.20;1.00;;;;;;4993816;28;20426;-81
2023/07/05 04:27:30;;;;;;;4.40;2.70;;;18.40;1.00;;;;;;4996776;28;20460;-82
2023/07/05 04:33:30;;;;;;;2.60;2.30;;;18.40;1.00;;;;;;4983017;28;20622;-81
2023/07/05 04:36:02;;;;;;;8.90;2.70;;;18.40;1.00;;;;;;4993573;28;20497;-81
2023/07/05 04:45:24;;;;;;;4.70;2.40;;;18.40;1.00;;;;;;5003426;28;20462;-81
2023/07/05 04:48:30;;;;;;;6.33;3.00;;;18.40;1.00;;;;;;4994169;28;20954;-81
2023/07/05 04:51:18;;;;;;;2.80;2.43;;;18.40;1.00;;;;;;5000958;28;20455;-81
2023/07/05 04:57:06;;;;;;;10.80;3.13;;;18.30;1.00;;;;;;4986900;28;20785;-81
2023/07/05 05:06:16;;;;;;;4.67;2.20;;;18.50;1.00;;;;;;5005918;28;20514;-82
2023/07/05 05:08:42;;;;;;;4.50;2.37;;;18.50;1.00;;;;;;5011818;28;20776;-82
2023/07/05 05:14:29;;;;;;;11.40;2.60;;;18.90;1.00;;;;;;4999885;28;20255;-81
2023/07/05 05:20:17;;;;;;;11.03;2.40;;;18.90;1.00;;;;;;4995847;28;20231;-82
2023/07/05 05:22:49;;;;;;;5.53;2.20;;;19.10;1.00;;;;;;4986346;28;20435;-87
2023/07/05 05:26:00;;;;;;;7.90;2.10;;;19.10;1.00;;;;;;4990780;28;20225;-84
2023/07/05 05:31:48;;;;;;;2.30;2.10;;;19.10;1.00;;;;;;5000647;28;21020;-84
2023/07/05 05:35:06;;;;;;;2.60;2.03;;;19.10;1.00;;;;;;5006009;28;20436;-85
2023/07/05 05:47:37;;;;;;;8.67;2.77;;;19.10;1.00;;;;;;5001531;28;20415;-85
2023/07/05 05:53:25;;;;;;;8.00;2.43;;;19.00;1.00;;;;;;5000874;28;20239;-81
2023/07/05 05:55:56;;;;;;;2.00;1.80;;;18.80;1.00;;;;;;5004287;28;20425;-81
2023/07/05 06:02:00;;;;;;;7.17;2.20;;;18.80;1.00;;;;;;4999048;28;20427;-81
2023/07/05 06:04:27;;;;;;;2.50;1.87;;;18.70;1.00;;;;;;5008161;28;20489;-84
2023/07/05 06:07:00;;;;;;;2.30;1.77;;;18.80;1.00;;;;;;5009921;28;20434;-84
2023/07/05 06:09:43;;;;;;;2.83;1.97;;;18.90;1.00;;;;;;5007679;28;20493;-84
2023/07/05 06:12:30;;;;;;;2.87;1.90;;;18.90;1.00;;;;;;5000265;28;20798;-84
2023/07/05 06:15:30;;;;;;;6.90;2.60;;;19.10;1.00;;;;;;4992321;28;20424;-84
2023/07/05 06:24:42;;;;;;;2.70;2.13;;;19.90;1.00;;;;;;4997176;28;20490;-81
2023/07/05 06:33:51;;;;;;;4.10;2.43;;;19.70;1.00;;;;;;5009458;28;20939;-83
2023/07/05 06:43:24;;;;;;;8.50;2.50;;;19.40;1.00;;;;;;4992326;28;20443;-84
2023/07/05 06:49:48;;;;;;;9.10;2.67;;;19.30;1.00;;;;;;4987797;28;20927;-82
2023/07/05 06:55:39;;;;;;;7.40;3.80;;;19.30;1.00;;;;;;4980814;28;20509;-81
2023/07/05 06:58:48;;;;;;;2.67;2.10;;;19.30;1.00;;;;;;4997852;28;20515;-84
2023/07/05 07:01:31;;;;;;;5.80;3.00;;;19.20;1.00;;;;;;4997513;28;20484;-83
2023/07/05 07:07:17;;;;;;;7.40;3.47;;;18.50;1.00;;;;;;5007804;28;20436;-82
2023/07/05 07:09:54;;;;;;;7.87;3.27;;;18.50;1.00;;;;;;4994668;28;20443;-82
2023/07/05 07:12:48;;;;;;;2.83;2.50;;;18.70;1.00;;;;;;5005707;28;20180;-81
2023/07/05 07:22:06;;;;;;;4.60;3.60;;;18.60;1.00;;;;;;4992536;28;20445;-85
2023/07/05 07:24:49;;;;;;;4.90;3.10;;;18.60;1.00;;;;;;4998167;28;20998;-85
2023/07/05 07:27:15;;;;;;;6.30;3.40;;;18.60;1.00;;;;;;5002102;28;20942;-82
2023/07/05 07:36:45;;;;;;;3.33;2.23;;;18.50;1.00;;;;;;4990355;28;20964;-81
2023/07/05 07:42:33;;;;;;;3.23;2.70;;;18.50;1.00;;;;;;4985962;28;20469;-82
2023/07/05 07:48:20;;;;;;;4.00;2.53;;;18.50;1.00;;;;;;5007877;28;20398;-79
2023/07/05 07:54:17;;;;;;;2.63;2.13;;;18.70;1.00;;;;;;4990180;28;20184;-81
2023/07/05 08:00:08;;;;;;;4.27;2.37;;;19.00;1.00;;;;;;4992699;28;20404;-82
2023/07/05 08:03:24;;;;;;;4.30;2.93;;;19.00;1.00;;;;;;4993440;28;20428;-82
2023/07/05 08:05:51;;;;;;;5.30;2.50;;;19.00;1.00;;;;;;4993796;28;20452;-84
2023/07/05 08:11:41;;;;;;;3.77;2.63;;;19.40;1.00;;;;;;5001782;28;21716;-83
2023/07/05 08:17:29;;;;;;;5.20;2.20;;;19.60;1.00;;;;;;5005058;28;20394;-85
2023/07/05 08:26:38;;;;;;;3.70;2.13;;;20.00;1.00;;;;;;4995049;28;20454;-84
2023/07/05 08:32:26;;;;;;;2.80;2.00;;;19.20;1.00;;;;;;4983527;28;20258;-85
2023/07/05 08:35:07;;;;;;;8.87;2.43;;;19.30;1.00;;;;;;5003207;28;20449;-84
2023/07/05 08:38:18;;;;;;;5.03;1.87;;;19.40;1.00;;;;;;4991571;28;20550;-80
2023/07/05 08:44:21;;;;;;;4.43;2.53;;;19.50;1.00;;;;;;5004696;28;20773;-80
2023/07/05 08:54:10;;;;;;;8.63;2.50;;;19.70;1.00;;;;;;5006305;28;20416;-82
2023/07/05 08:56:48;;;;;;;6.20;2.60;;;20.00;1.00;;;;;;4986550;28;20938;-81
2023/07/05 09:02:37;;;;;;;6.33;2.10;;;20.60;1.00;;;;;;5006025;28;20412;-81
2023/07/05 09:12:15;;;;;;;1.73;1.63;;;20.70;1.00;;;;;;5002793;28;20965;-81
2023/07/05 09:15:01;;;;;;;3.93;2.20;;;20.70;1.00;;;;;;5002587;28;20435;-82
2023/07/05 09:24:22;;;;;;;6.20;1.70;;;20.90;1.00;;;;;;4994119;28;20594;-78
2023/07/05 09:27:09;;;;;;;1.50;1.40;;;21.00;1.00;;;;;;4999991;28;20407;-79
2023/07/05 09:33:20;;;;;;;3.40;1.87;;;20.90;1.00;;;;;;5009950;28;20409;-79
2023/07/05 09:35:55;;;;;;;2.40;1.70;;;21.00;1.00;;;;;;4996295;28;20489;-78
2023/07/05 09:48:55;;;;;;;2.60;1.63;;;21.30;1.00;;;;;;4987506;28;20462;-78
2023/07/05 09:51:25;;;;;;;1.60;1.30;;;21.40;1.00;;;;;;4994974;28;20422;-77
2023/07/05 09:57:54;;;;;;;1.47;1.30;;;21.50;1.00;;;;;;5006524;28;20746;-78
2023/07/05 10:00:33;;;;;;;2.40;1.30;;;21.60;1.00;;;;;;5008852;28;20420;-78
2023/07/05 10:03:42;;;;;;;5.33;1.73;;;21.10;1.00;;;;;;5002547;28;20430;-78
2023/07/05 10:09:29;;;;;;;4.40;1.70;;;21.10;1.00;;;;;;5007248;28;20453;-82
2023/07/05 10:15:44;;;;;;;2.40;1.27;;;21.50;1.00;;;;;;5007406;28;20199;-82
2023/07/05 10:18:24;;;;;;;1.10;1.00;;;21.40;1.00;;;;;;5008420;28;20396;-74
2023/07/05 10:20:58;;;;;;;2.63;1.10;;;21.10;1.00;;;;;;5007575;28;20508;-75
2023/07/05 10:23:36;;;;;;;0.87;0.80;;;21.00;1.00;;;;;;5010134;28;20549;-75
2023/07/05 10:26:07;;;;;;;2.70;1.20;;;21.70;1.00;;;;;;5000657;28;20546;-74
2023/07/05 10:28:35;;;;;;;1.10;0.97;;;21.70;1.00;;;;;;4993956;28;20849;-74
2023/07/05 10:31:05;;;;;;;2.10;1.30;;;21.70;1.00;;;;;;4995649;28;20440;-74
2023/07/05 10:36:54;;;;;;;2.60;1.27;;;21.50;1.00;;;;;;5003227;28;20497;-85
2023/07/05 10:42:48;;;;;;;2.73;1.40;;;21.20;1.00;;;;;;5005684;28;20477;-83
2023/07/05 10:48:43;;;;;;;2.30;1.20;;;21.60;1.00;;;;;;4990689;28;20491;-86
2023/07/05 10:58:04;;;;;;;1.83;1.00;;;21.60;1.00;;;;;;4995863;28;20916;-87
2023/07/05 11:03:55;;;;;;;4.00;1.40;;;21.70;1.00;;;;;;4992607;28;20452;-85
2023/07/05 11:06:56;;;;;;;5.60;1.20;;;21.70;1.00;;;;;;5006133;28;20463;-85
2023/07/05 11:12:47;;;;;;;1.77;1.10;;;21.90;1.00;;;;;;4996292;28;20501;-85
2023/07/05 11:22:48;;;;;;;4.30;1.00;;;22.20;1.00;;;;;;5015064;28;20480;-85
2023/07/05 11:26:06;;;;;;;1.07;0.93;;;22.50;1.00;;;;;;4997858;28;21026;-88
2023/07/05 11:28:42;;;;;;;1.03;0.70;;;22.50;1.00;;;;;;4993798;28;20522;-86
2023/07/05 11:31:45;;;;;;;2.27;0.97;;;22.90;1.00;;;;;;4997038;28;20429;-85
2023/07/05 11:37:54;;;;;;;4.37;1.10;;;22.70;1.00;;;;;;4999665;28;20981;-85
2023/07/05 11:41:12;;;;;;;1.27;1.17;;;22.40;1.00;;;;;;4977351;28;20445;-86
2023/07/05 11:44:18;;;;;;;3.60;1.77;;;22.10;1.00;;;;;;4977822;28;20420;-86
2023/07/05 11:47:00;;;;;;;3.10;1.60;;;22.00;1.00;;;;;;5000038;28;20467;-86
2023/07/05 11:49:42;;;;;;;3.53;1.50;;;22.30;1.00;;;;;;4996557;28;20796;-86
2023/07/05 11:58:56;;;;;;;1.63;1.30;;;22.40;1.00;;;;;;5004675;28;20406;-83
2023/07/05 12:04:46;;;;;;;6.83;1.33;;;22.40;1.00;;;;;;4997360;28;20489;-84
2023/07/05 12:07:21;;;;;;;2.90;1.47;;;22.30;1.00;;;;;;4969666;28;20436;-83
2023/07/05 12:13:20;;;;;;;13.63;1.77;;;22.20;1.00;;;;;;5008066;28;20401;-85
2023/07/05 12:16:18;;;;;;;4.33;1.13;;;22.40;1.00;;;;;;5011749;28;20957;-87
2023/07/05 12:19:36;;;;;;;6.83;1.30;;;22.50;1.00;;;;;;4995273;28;20436;-86
2023/07/05 12:22:25;;;;;;;5.57;1.43;;;22.80;1.00;;;;;;5001319;28;20439;-86
2023/07/05 12:25:25;;;;;;;2.97;1.30;;;22.70;1.00;;;;;;5018256;28;20504;-86
2023/07/05 12:27:51;;;;;;;7.00;1.80;;;23.00;1.00;;;;;;4993597;28;20436;-86
2023/07/05 12:30:55;;;;;;;2.93;1.40;;;23.00;1.00;;;;;;5014699;28;20520;-86
2023/07/05 12:34:07;;;;;;;3.50;1.80;;;23.50;1.00;;;;;;4994595;28;20513;-85
2023/07/05 12:40:16;;;;;;;4.30;1.50;;;23.60;1.00;;;;;;5000653;28;20464;-84
2023/07/05 12:43:08;;;;;;;19.53;2.20;;;23.70;1.00;;;;;;4992242;28;20430;-83
2023/07/05 12:45:39;;;;;;;1.93;1.50;;;23.70;1.00;;;;;;4983375;28;20466;-83
2023/07/05 12:51:28;;;;;;;2.77;1.60;;;23.60;1.00;;;;;;4997124;28;20465;-83
2023/07/05 12:54:00;;;;;;;4.33;1.40;;;23.60;1.00;;;;;;5003130;28;20588;-85
2023/07/05 12:56:36;;;;;;;3.23;1.67;;;23.30;1.00;;;;;;4996811;28;20430;-86
2023/07/05 12:59:36;;;;;;;5.40;1.43;;;23.30;1.00;;;;;;5001833;28;20443;-85
2023/07/05 13:02:44;;;;;;;18.23;1.60;;;23.40;1.00;;;;;;5003463;28;20426;-84
2023/07/05 13:08:31;;;;;;;1.77;1.40;;;23.60;1.00;;;;;;4995738;28;20412;-86
2023/07/05 13:11:36;;;;;;;1.90;1.27;;;23.70;1.00;;;;;;4980467;28;20440;-86
2023/07/05 13:14:37;;;;;;;5.67;1.60;;;24.00;1.00;;;;;;4980822;28;20297;-86
2023/07/05 13:23:49;;;;;;;5.60;1.37;;;24.10;1.00;;;;;;4998156;28;20415;-83
2023/07/05 13:26:32;;;;;;;8.00;1.73;;;24.10;1.00;;;;;;4999008;28;20478;-84
2023/07/05 13:29:00;;;;;;;4.97;1.80;;;24.00;1.00;;;;;;5003087;28;20868;-84
2023/07/05 13:31:46;;;;;;;7.50;1.80;;;24.00;1.00;;;;;;5001591;28;20438;-84
2023/07/05 13:37:33;;;;;;;9.60;2.10;;;23.60;1.00;;;;;;5007033;28;20476;-85
2023/07/05 13:40:09;;;;;;;3.07;1.63;;;23.50;1.00;;;;;;4987263;28;20551;-86
2023/07/05 13:42:54;;;;;;;7.67;2.10;;;23.60;1.00;;;;;;5002994;28;20526;-87
2023/07/05 13:45:39;;;;;;;4.33;1.67;;;23.80;1.00;;;;;;5012025;28;20493;-86
2023/07/05 13:48:36;;;;;;;7.13;1.60;;;23.80;1.00;;;;;;5019461;28;20434;-86
2023/07/05 13:51:02;;;;;;;7.23;1.87;;;23.80;1.00;;;;;;5020972;28;20440;-85
2023/07/05 13:54:06;;;;;;;1.63;1.53;;;23.80;1.00;;;;;;5005585;28;20460;-84
2023/07/05 13:57:15;;;;;;;3.20;2.07;;;23.80;1.00;;;;;;4981531;28;20441;-83
2023/07/05 14:00:09;;;;;;;7.90;1.37;;;23.40;1.00;;;;;;5005529;28;20439;-84
2023/07/05 14:02:49;;;;;;;6.90;2.00;;;23.50;1.00;;;;;;5005996;28;20421;-84
2023/07/05 14:05:48;;;;;;;2.80;1.73;;;23.90;1.00;;;;;;4997106;28;21125;-84
2023/07/05 14:08:30;;;;;;;13.63;2.37;;;24.30;1.00;;;;;;4996954;28;20432;-83
2023/07/05 14:11:01;;;;;;;3.70;1.67;;;23.90;1.00;;;;;;4995556;28;20412;-77
2023/07/05 14:13:30;;;;;;;10.20;2.47;;;24.00;1.00;;;;;;4991539;28;20420;-77
2023/07/05 14:16:00;;;;;;;15.23;2.00;;;24.50;1.00;;;;;;4998558;28;20443;-77
2023/07/05 14:18:30;;;;;;;4.53;1.97;;;24.60;1.00;;;;;;4989296;28;20915;-77
2023/07/05 14:21:00;;;;;;;17.27;2.00;;;25.10;1.00;;;;;;5002625;28;20435;-77
2023/07/05 14:23:26;;;;;;;9.33;1.97;;;25.10;1.00;;;;;;4997020;28;20416;-75
2023/07/05 14:25:54;;;;;;;6.60;2.43;;;25.40;1.00;;;;;;4995404;28;20450;-74
2023/07/05 14:28:25;;;;;;;6.33;2.20;;;25.10;1.00;;;;;;4991733;28;20212;-75
2023/07/05 14:30:54;;;;;;;11.87;3.57;;;25.10;1.00;;;;;;5002294;28;20453;-75
2023/07/05 14:33:20;;;;;;;19.23;2.63;;;25.10;1.00;;;;;;4989952;28;20995;-75
2023/07/05 14:35:46;;;;;;;10.17;2.33;;;24.90;1.00;;;;;;4994510;28;20435;-74
2023/07/05 14:38:15;;;;;;;3.47;1.90;;;24.90;1.00;;;;;;5000606;28;20184;-73
2023/07/05 14:40:44;;;;;;;4.73;2.13;;;24.70;1.00;;;;;;5000670;28;20682;-74
2023/07/05 14:43:10;;;;;;;5.90;1.87;;;24.40;1.00;;;;;;4995364;28;20472;-73
2023/07/05 14:45:38;;;;;;;4.77;1.90;;;24.40;1.00;;;;;;5003256;28;21120;-74
2023/07/05 14:48:04;;;;;;;8.27;1.87;;;24.50;1.00;;;;;;5005483;28;20773;-74
2023/07/05 14:50:31;;;;;;;8.73;1.70;;;24.80;1.00;;;;;;4989739;28;20991;-75
2023/07/05 14:52:59;;;;;;;2.50;2.10;;;24.90;1.00;;;;;;5002939;28;20482;-74
2023/07/05 14:55:26;;;;;;;10.87;2.23;;;24.80;1.00;;;;;;4994731;28;20442;-76
2023/07/05 14:57:53;;;;;;;5.63;2.00;;;24.60;1.00;;;;;;4994460;28;20439;-76
2023/07/05 15:00:21;;;;;;;2.60;1.60;;;24.80;1.00;;;;;;4994303;28;20443;-75
2023/07/05 15:03:05;;;;;;;7.20;2.07;;;24.80;1.00;;;;;;4994945;28;20925;-77
2023/07/05 15:05:31;;;;;;;6.47;1.83;;;24.80;1.00;;;;;;4993907;28;20456;-77
2023/07/05 15:08:09;;;;;;;3.63;1.97;;;24.80;1.00;;;;;;4995293;28;20509;-76
2023/07/05 15:10:36;;;;;;;2.97;1.57;;;24.50;1.00;;;;;;5001825;28;20176;-76
2023/07/05 15:13:30;;;;;;;3.43;1.70;;;24.50;1.00;;;;;;4994704;28;20435;-76
2023/07/05 15:16:36;;;;;;;2.90;2.00;;;24.70;1.00;;;;;;4997108;28;20434;-76
2023/07/05 15:19:02;;;;;;;17.20;6.47;;;25.10;1.00;;;;;;5003021;28;20530;-76
2023/07/05 15:21:37;;;;;;;7.43;3.10;;;24.80;1.00;;;;;;4991949;28;20438;-76
2023/07/05 15:24:07;;;;;;;3.57;2.27;;;26.40;1.00;;;;;;4976984;28;20180;-77
2023/07/05 15:26:36;;;;;;;14.47;2.53;;;28.10;1.00;;;;;;4974648;28;20453;-77
2023/07/05 15:29:15;;;;;;;6.03;2.13;;;29.50;1.00;;;;;;4994565;28;20947;-76
2023/07/05 15:31:41;;;;;;;3.47;1.77;;;28.20;1.00;;;;;;4990339;28;20514;-76
2023/07/05 15:34:36;;;;;;;5.10;2.13;;;27.60;1.00;;;;;;4989916;28;20479;-76
2023/07/05 15:37:24;;;;;;;9.43;2.10;;;27.80;1.00;;;;;;4995315;28;20243;-76
2023/07/05 15:39:50;;;;;;;2.57;1.83;;;28.60;1.00;;;;;;4997970;28;20441;-77
2023/07/05 15:42:16;;;;;;;2.50;1.97;;;29.30;1.00;;;;;;4999241;28;20532;-77
2023/07/05 15:44:49;;;;;;;1.77;1.60;;;30.50;1.00;;;;;;4975965;28;20559;-76
2023/07/05 15:47:36;;;;;;;11.03;1.70;;;31.30;1.00;;;;;;4992668;28;20418;-77
2023/07/05 15:53:37;;;;;;;2.90;1.83;;;32.60;1.00;;;;;;4988244;28;21310;-88
2023/07/05 15:56:07;;;;;;;2.53;1.70;;;31.20;1.00;;;;;;4974731;28;20430;-82
2023/07/05 15:58:42;;;;;;;8.43;2.20;;;31.30;1.00;;;;;;5000328;28;20440;-80
2023/07/05 16:01:36;;;;;;;1.87;1.27;;;32.00;1.00;;;;;;4989917;28;20923;-81
2023/07/05 16:04:37;;;;;;;10.70;1.90;;;31.50;1.00;;;;;;4994842;28;20397;-81
2023/07/05 16:07:24;;;;;;;6.43;2.40;;;30.90;1.00;;;;;;4985664;28;20420;-81
2023/07/05 16:10:07;;;;;;;2.03;1.70;;;30.50;1.00;;;;;;5002327;28;20434;-81
2023/07/05 16:12:37;;;;;;;7.27;2.17;;;29.70;1.00;;;;;;5001269;28;20421;-81
2023/07/05 16:15:07;;;;;;;7.53;2.80;;;29.30;1.00;;;;;;4999548;28;20989;-81
2023/07/05 16:21:07;;;;;;;3.50;2.30;;;29.80;1.00;;;;;;4998846;28;20846;-80
2023/07/05 16:24:06;;;;;;;12.50;2.70;;;30.50;1.00;;;;;;4990280;28;20430;-81
2023/07/05 16:26:38;;;;;;;3.20;1.90;;;31.90;1.00;;;;;;5003966;28;20467;-81
2023/07/05 16:29:36;;;;;;;9.33;2.47;;;32.00;1.00;;;;;;4999187;28;20524;-81
2023/07/05 16:32:38;;;;;;;5.60;2.03;;;30.60;1.00;;;;;;4988813;28;20970;-80
2023/07/05 16:35:37;;;;;;;5.77;1.97;;;31.10;1.00;;;;;;4997670;28;20444;-81
2023/07/05 16:38:24;;;;;;;6.30;1.97;;;33.00;1.00;;;;;;4993322;28;20445;-81
2023/07/05 16:41:08;;;;;;;1.80;1.70;;;33.60;1.00;;;;;;4994449;28;20433;-81
2023/07/05 16:43:37;;;;;;;2.23;2.03;;;33.60;1.00;;;;;;4999551;28;20456;-80
2023/07/05 16:46:08;;;;;;;6.10;2.30;;;33.90;1.00;;;;;;4994099;28;20544;-81
2023/07/05 16:49:06;;;;;;;2.10;1.90;;;34.90;1.00;;;;;;5005716;28;20554;-81
2023/07/05 16:51:57;;;;;;;12.87;1.80;;;36.40;1.00;;;;;;4974671;28;20402;-81
2023/07/05 16:54:37;;;;;;;11.50;1.77;;;34.80;1.00;;;;;;4983227;28;20939;-81
2023/07/05 16:57:07;;;;;;;7.23;2.13;;;36.00;1.00;;;;;;5008992;28;20428;-80
2023/07/05 16:59:48;;;;;;;2.60;1.80;;;35.90;1.00;;;;;;4995323;28;20408;-81
2023/07/05 17:02:15;;;;;;;2.80;1.70;;;35.70;1.00;;;;;;4992394;28;20421;-81
2023/07/05 17:05:37;;;;;;;5.50;2.23;;;34.60;1.00;;;;;;4995290;28;20435;-81
2023/07/05 17:08:24;;;;;;;8.87;2.37;;;34.30;1.00;;;;;;4997071;28;20424;-81
2023/07/05 17:11:24;;;;;;;9.30;2.33;;;33.00;1.00;;;;;;4995427;28;20459;-81
2023/07/05 17:14:06;;;;;;;2.00;1.70;;;32.00;1.00;;;;;;5004980;28;20471;-81
2023/07/05 17:16:37;;;;;;;3.50;2.10;;;30.50;1.00;;;;;;4984408;28;20447;-81
2023/07/05 17:19:07;;;;;;;5.80;2.40;;;28.80;1.00;;;;;;5003459;28;20420;-82
2023/07/05 17:21:54;;;;;;;22.57;2.30;;;27.90;1.00;;;;;;4996970;28;20798;-81
2023/07/05 17:24:54;;;;;;;4.37;1.87;;;26.50;1.00;;;;;;4989687;28;20463;-80
2023/07/05 17:27:36;;;;;;;4.60;2.30;;;26.20;1.00;;;;;;4987394;28;20443;-94
2023/07/05 17:30:07;;;;;;;2.67;2.00;;;25.60;1.00;;;;;;4990462;28;20779;-88
2023/07/05 17:32:34;;;;;;;2.53;2.13;;;24.60;1.00;;;;;;4990995;28;20458;-92
2023/07/05 17:35:08;;;;;;;7.60;2.90;;;24.30;1.00;;;;;;4990710;28;20442;-92
2023/07/05 17:37:37;;;;;;;2.83;1.60;;;24.20;1.00;;;;;;4992024;28;20481;-91
2023/07/05 17:40:03;;;;;;;8.50;1.70;;;23.70;1.00;;;;;;4990095;28;20523;-92
2023/07/05 17:42:33;;;;;;;8.17;1.93;;;23.60;1.00;;;;;;4995740;28;20445;-79
2023/07/05 17:45:07;;;;;;;7.27;1.80;;;23.40;1.00;;;;;;4993935;28;20526;-79
2023/07/05 17:47:54;;;;;;;12.10;2.33;;;22.90;1.00;;;;;;5002385;28;20492;-79
2023/07/05 17:50:54;;;;;;;6.50;1.77;;;22.50;1.00;;;;;;4995179;28;20439;-81
2023/07/05 17:53:24;;;;;;;5.50;2.20;;;22.40;1.00;;;;;;5000260;28;20812;-80
2023/07/05 17:55:55;;;;;;;3.63;1.60;;;22.50;1.00;;;;;;5005596;28;20945;-86
2023/07/05 17:58:38;;;;;;;8.33;2.20;;;22.50;1.00;;;;;;4999786;28;20790;-88
2023/07/05 18:01:09;;;;;;;7.73;1.93;;;22.80;1.00;;;;;;5001325;28;20419;-87
2023/07/05 18:03:38;;;;;;;7.50;2.00;;;23.00;1.00;;;;;;4994718;28;20519;-89
2023/07/05 18:06:06;;;;;;;3.33;2.33;;;23.10;1.00;;;;;;4999703;28;20798;-89
2023/07/05 18:08:38;;;;;;;4.90;2.10;;;22.90;1.00;;;;;;4998008;28;20420;-88
2023/07/05 18:11:07;;;;;;;5.33;2.07;;;22.90;1.00;;;;;;4984921;28;20422;-87
2023/07/05 18:17:08;;;;;;;3.47;1.90;;;22.80;1.00;;;;;;4998066;28;20435;-86
2023/07/05 18:19:37;;;;;;;10.30;1.73;;;22.70;1.00;;;;;;5006647;28;20436;-92
2023/07/05 18:22:13;;;;;;;3.90;2.43;;;22.60;1.00;;;;;;4998855;28;20422;-90
2023/07/05 18:24:55;;;;;;;5.85;2.35;;;22.30;1.00;;;;;;5003175;28;20505;-89
2023/07/05 18:27:25;;;;;;;4.53;1.90;;;22.30;1.00;;;;;;4989710;28;20452;-89
2023/07/05 18:29:55;;;;;;;4.37;2.30;;;22.30;1.00;;;;;;4996123;28;20507;-91
2023/07/05 18:32:37;;;;;;;2.17;1.97;;;;;;;;;;4988877;28;20520;-92
2023/07/05 18:35:03;;;;;;;7.43;1.90;;;22.00;1.00;;;;;;5010091;28;20487;-92
2023/07/05 18:37:54;;;;;;;2.00;1.80;;;22.00;1.00;;;;;;5012514;28;20918;-94
2023/07/05 18:43:55;;;;;;;2.67;1.70;;;21.70;1.00;;;;;;4993630;28;20583;-82
2023/07/05 18:46:25;;;;;;;4.20;2.53;;;21.70;1.00;;;;;;5006485;28;20466;-82
2023/07/05 18:49:07;;;;;;;4.57;2.03;;;21.80;1.00;;;;;;4994764;28;20818;-81
2023/07/05 18:51:37;;;;;;;4.50;2.20;;;21.70;1.00;;;;;;5004411;28;20486;-81
2023/07/05 18:54:10;;;;;;;4.33;1.63;;;21.60;1.00;;;;;;5009112;28;20459;-82
2023/07/05 18:56:37;;;;;;;5.90;2.77;;;21.60;1.00;;;;;;5014339;28;20452;-81
2023/07/05 18:59:07;;;;;;;3.93;1.70;;;21.60;1.00;;;;;;4990540;28;20422;-83
2023/07/05 19:01:37;;;;;;;6.27;2.50;;;21.60;1.00;;;;;;5005308;28;20423;-81
2023/07/05 19:04:07;;;;;;;2.63;1.70;;;21.60;1.00;;;;;;5002235;28;20436;-81
2023/07/05 19:06:37;;;;;;;5.87;2.67;;;21.60;1.00;;;;;;5007304;28;20460;-81
2023/07/05 19:09:09;;;;;;;7.33;1.93;;;21.50;1.00;;;;;;5004215;28;20421;-81
2023/07/05 19:11:37;;;;;;;3.87;1.67;;;21.50;1.00;;;;;;4995346;28;20439;-81
2023/07/05 19:14:31;;;;;;;4.03;1.90;;;21.40;1.00;;;;;;5009613;28;20427;-92
2023/07/05 19:17:08;;;;;;;2.07;1.87;;;21.40;1.00;;;;;;5000128;28;20515;-92
2023/07/05 19:19:49;;;;;;;9.00;1.90;;;21.40;1.00;;;;;;4992628;28;20432;-92
2023/07/05 19:22:25;;;;;;;9.70;2.30;;;21.40;1.00;;;;;;4999702;28;21002;-92
2023/07/05 19:24:55;;;;;;;7.10;2.20;;;21.20;1.00;;;;;;5001430;28;20436;-92
2023/07/05 19:27:25;;;;;;;4.83;2.10;;;;;;;;;;5031507;28;20426;-92
2023/07/05 19:29:55;;;;;;;5.37;2.10;;;21.00;1.00;;;;;;5000607;28;20440;-81
2023/07/05 19:32:21;;;;;;;2.63;1.87;;;21.00;1.00;;;;;;5002033;28;20420;-81
2023/07/05 19:34:55;;;;;;;3.53;2.30;;;20.80;1.00;;;;;;5001560;28;20447;-82
2023/07/05 19:37:54;;;;;;;3.10;2.00;;;20.80;1.00;;;;;;5009619;28;20542;-82
2023/07/05 19:40:25;;;;;;;4.07;1.80;;;20.80;1.00;;;;;;4985241;28;20768;-81
2023/07/05 19:42:53;;;;;;;3.33;1.60;;;20.80;1.00;;;;;;4994590;28;20467;-81
2023/07/05 19:45:25;;;;;;;5.87;1.83;;;20.70;1.00;;;;;;4983370;28;20458;-82
2023/07/05 19:51:13;;;;;;;9.27;2.73;;;20.60;1.00;;;;;;5007617;28;20934;-81
2023/07/05 19:54:12;;;;;;;3.50;1.80;;;20.50;1.00;;;;;;5008042;28;20426;-81
2023/07/05 20:00:02;;;;;;;3.43;2.10;;;20.40;1.00;;;;;;4991428;28;20478;-79
2023/07/05 20:05:50;;;;;;;2.73;1.70;;;20.40;1.00;;;;;;4990629;28;20522;-80
2023/07/05 20:08:42;;;;;;;3.40;1.77;;;20.30;1.00;;;;;;5009487;28;20426;-80
2023/07/05 20:14:30;;;;;;;1.70;1.50;;;20.20;1.00;;;;;;4983592;28;20890;-72
2023/07/05 20:16:55;;;;;;;9.93;1.70;;;20.10;1.00;;;;;;4995867;28;20933;-72
2023/07/05 20:19:21;;;;;;;2.43;1.63;;;20.10;1.00;;;;;;4988200;28;20182;-73
2023/07/05 20:21:47;;;;;;;3.03;1.57;;;20.10;1.00;;;;;;4993782;28;20178;-72